KDEN

Denver International Airport

Airport
ICAO code
KDEN
IATA Code
DEN
Summary
ICAO Region
NAM
ICAO Territory
Location

Denver, Colorado,

Serving
Denver
Elevation
5431 ft
Coordinates
39° 51' 34" N , 104° 40' 19" W
KCC
BSk
Airport RE
Hot and High Operations
Metar
Observation
KDEN 152153Z 01011KT 10SM VCTS SCT065 BKN100 BKN220 27/12 A3015 RMK AO2 LTG DSNT N AND S AND SW SLP127 T02720117
Station
Denver, Denver International Airport
Date/Time
2022-08-15 21:53:00
Wind direction
10°
Wind speed
11 kts
Lowest cloud amount
scattered clouds
Temperature
27.2°C
Dew point
11.7°C
Humidity
38%
Weather condition
in vicinity: thunderstorm

Description

International airport serving the City of Denver.

Climatology

Cold Semi-arid climate (Köppen climate classification BSk). - Hot, sometimes extremely hot summers and cold, sometimes very cold winters. Some snowfall during the winter. Areas featuring cold semi-arid climates are sometimes subject to major temperature swings during a 24 hour period.

SKYbrary Partners:

Safety knowledge contributed by: